Houghton Lake, MI

7:51 PM EST on February 27, 2015 (GMT -0500)
Roscommon County | Change Station
CLOSE
Current Station
Airport
Location: Houghton Lake,
Elevation: 1152 ft
Nearby Weather Stations

Elev 1152 ft 44.36 °N, 84.67 °W | Updated 58 minutes ago

Clear
Clear
12 °F
Feels Like 0 °F
N
9
Wind Variable Wind from WSW

Today
High -- | Low -- °F
--% Chance of Precip.
Yesterday
High -- | Low -- °F
Precip. -- in
7:19 AM 6:23 PM
Waxing Gibbous, 73% visible
Pressure 30.56 in
Visibility 10.0 miles
Clouds Clear
Windchill 0 °F
Dew Point -2 °F
Humidity 53%
Rainfall 0.00 in
Snow Depth Not available.
UV 0 out of 12
Pollen .30 out of 12
Air Quality Not available.
Flu Activity Not available.
METAR KHTL 272353Z AUTO 24008KT 10SM CLR M11/M19 A3046 RMK AO2 SLP349 T11111189 11083 21111 53007

More Conditions Fewer Conditions

Pressure 30.56 in
Visibility 10.0 miles
Clouds Clear
Windchill 0 °F
Dew Point -2 °F
Humidity 53%
Rainfall 0.00 in
Snow Depth Not available.
UV 0 out of 12
Pollen .30 out of 12
Air Quality Not available.
Flu Activity Not available.
METAR KHTL 272353Z AUTO 24008KT 10SM CLR M11/M19 A3046 RMK AO2 SLP349 T11111189 11083 21111 53007

More Conditions Fewer Conditions

Nowcast | as of 6:00 PM EST on February 27, 2015

At 7 PM...mostly clear. Temperature 6 above. West winds 6 mph. At 9 PM...mostly clear. Temperature 3 below. Light winds. At 11 PM...clear. Temperature 10 below. Light winds. At 1 am...clear. Temperature 10 below. Southwest winds 6 mph.

×

10-Day Weather Forecast

Almanac

Astronomy

Feb. 27, 2015 Rise Set
Actual Time
Civil Twilight
Nautical Twilight
Astronomical Twilight
Moon
Length of Visible Light
Length of Day
Tomorrow will be .
, % of the Moon is Illuminated

Today's Extremes

State Highs State Lows

Community

WunderPhotos

Upload Photos

1,800,910 photos uploaded!

WunderBlogs® & News

Nearby

Air Quality

  Air Quality AQ Index Pollutant
Not available.

Snow Depth

Station Depth Elevation

Earthquake Activity

City Distance Mag. Time & Date
Minimum magnitude displayed is 2.5.

Coastal Water Temperatures

Place Temperature

Nearby Weather Stations